sensor_id;sensor_type;location;lat;lon;timestamp;pressure;altitude;pressure_sealevel;temperature;humidity
56713;BME280;42589;45.536;9.032;2022-09-09T00:04:48;99274.22;;;30.74;43.04
56713;BME280;42589;45.536;9.032;2022-09-09T00:07:55;99261.69;;;30.30;43.79
56713;BME280;42589;45.536;9.032;2022-09-09T00:11:01;99265.56;;;30.67;43.22
56713;BME280;42589;45.536;9.032;2022-09-09T00:14:11;99263.25;;;30.37;44.53
56713;BME280;42589;45.536;9.032;2022-09-09T00:17:36;99247.78;;;30.27;44.69
56713;BME280;42589;45.536;9.032;2022-09-09T00:23:57;99259.66;;;29.98;45.58
56713;BME280;42589;45.536;9.032;2022-09-09T00:27:49;99252.94;;;30.28;45.07
56713;BME280;42589;45.536;9.032;2022-09-09T00:30:32;99252.88;;;30.34;44.54
56713;BME280;42589;45.536;9.032;2022-09-09T00:33:35;99235.78;;;30.23;44.84
56713;BME280;42589;45.536;9.032;2022-09-09T00:36:37;99243.13;;;30.03;45.67
56713;BME280;42589;45.536;9.032;2022-09-09T00:39:43;99243.03;;;30.33;45.27
56713;BME280;42589;45.536;9.032;2022-09-09T00:42:45;99234.75;;;29.95;45.88
56713;BME280;42589;45.536;9.032;2022-09-09T00:45:56;99232.84;;;30.14;45.76
56713;BME280;42589;45.536;9.032;2022-09-09T00:52:11;99224.44;;;29.87;46.33
56713;BME280;42589;45.536;9.032;2022-09-09T00:58:20;99193.50;;;30.05;45.98
56713;BME280;42589;45.536;9.032;2022-09-09T01:01:20;99197.09;;;29.63;47.04
56713;BME280;42589;45.536;9.032;2022-09-09T01:04:31;99195.13;;;29.87;46.89
56713;BME280;42589;45.536;9.032;2022-09-09T01:07:34;99203.97;;;29.55;47.88
56713;BME280;42589;45.536;9.032;2022-09-09T01:10:52;99192.75;;;29.99;47.11
56713;BME280;42589;45.536;9.032;2022-09-09T01:14:01;99180.53;;;29.25;48.42
56713;BME280;42589;45.536;9.032;2022-09-09T01:17:29;99192.28;;;29.73;47.63
56713;BME280;42589;45.536;9.032;2022-09-09T01:20:42;99198.19;;;29.61;47.38
56713;BME280;42589;45.536;9.032;2022-09-09T01:27:01;99166.25;;;29.76;47.70
56713;BME280;42589;45.536;9.032;2022-09-09T01:30:14;99162.56;;;29.86;47.25
56713;BME280;42589;45.536;9.032;2022-09-09T01:33:17;99179.44;;;29.93;47.48
56713;BME280;42589;45.536;9.032;2022-09-09T01:36:29;99174.16;;;29.96;47.39
56713;BME280;42589;45.536;9.032;2022-09-09T01:39:35;99169.75;;;30.00;46.49
56713;BME280;42589;45.536;9.032;2022-09-09T01:42:37;99194.41;;;30.38;46.30
56713;BME280;42589;45.536;9.032;2022-09-09T01:45:39;99192.50;;;30.39;46.11
56713;BME280;42589;45.536;9.032;2022-09-09T01:48:41;99176.91;;;29.96;47.19
56713;BME280;42589;45.536;9.032;2022-09-09T01:51:42;99188.41;;;29.98;46.67
56713;BME280;42589;45.536;9.032;2022-09-09T01:54:43;99203.34;;;29.87;47.11
56713;BME280;42589;45.536;9.032;2022-09-09T02:01:18;99202.72;;;30.33;46.79
56713;BME280;42589;45.536;9.032;2022-09-09T02:04:28;99203.34;;;30.06;46.50
56713;BME280;42589;45.536;9.032;2022-09-09T02:07:40;99204.84;;;29.98;46.94
56713;BME280;42589;45.536;9.032;2022-09-09T02:10:46;99205.44;;;29.71;47.27
56713;BME280;42589;45.536;9.032;2022-09-09T02:13:57;99199.28;;;30.41;46.08
56713;BME280;42589;45.536;9.032;2022-09-09T02:17:09;99209.00;;;30.15;46.71
56713;BME280;42589;45.536;9.032;2022-09-09T02:20:14;99177.47;;;29.26;48.52
56713;BME280;42589;45.536;9.032;2022-09-09T02:23:15;99191.53;;;29.68;47.68
56713;BME280;42589;45.536;9.032;2022-09-09T02:26:17;99180.38;;;29.83;47.46
56713;BME280;42589;45.536;9.032;2022-09-09T02:29:25;99173.91;;;29.98;46.64
56713;BME280;42589;45.536;9.032;2022-09-09T02:32:28;99181.03;;;29.75;47.42
56713;BME280;42589;45.536;9.032;2022-09-09T02:35:31;99187.97;;;29.91;47.40
56713;BME280;42589;45.536;9.032;2022-09-09T02:38:45;99176.44;;;29.46;48.25
56713;BME280;42589;45.536;9.032;2022-09-09T02:41:50;99189.41;;;29.83;47.12
56713;BME280;42589;45.536;9.032;2022-09-09T02:44:51;99193.50;;;29.38;48.38
56713;BME280;42589;45.536;9.032;2022-09-09T02:51:00;99204.13;;;30.30;46.67
56713;BME280;42589;45.536;9.032;2022-09-09T02:54:20;99187.91;;;28.95;49.93
56713;BME280;42589;45.536;9.032;2022-09-09T02:57:28;99178.63;;;29.92;47.95
56713;BME280;42589;45.536;9.032;2022-09-09T03:00:31;99199.03;;;29.81;47.98
56713;BME280;42589;45.536;9.032;2022-09-09T03:03:33;99190.63;;;29.96;47.83
56713;BME280;42589;45.536;9.032;2022-09-09T03:06:33;99196.41;;;30.14;48.07
56713;BME280;42589;45.536;9.032;2022-09-09T03:09:35;99187.97;;;29.43;48.77
56713;BME280;42589;45.536;9.032;2022-09-09T03:12:36;99204.81;;;29.79;48.35
56713;BME280;42589;45.536;9.032;2022-09-09T03:15:37;99196.75;;;29.69;48.72
56713;BME280;42589;45.536;9.032;2022-09-09T03:18:38;99206.72;;;30.41;47.31
56713;BME280;42589;45.536;9.032;2022-09-09T03:21:39;99204.19;;;30.44;47.15
56713;BME280;42589;45.536;9.032;2022-09-09T03:24:40;99211.47;;;30.16;48.78
56713;BME280;42589;45.536;9.032;2022-09-09T03:27:41;99210.03;;;30.19;47.95
56713;BME280;42589;45.536;9.032;2022-09-09T03:30:42;99180.84;;;30.09;48.04
56713;BME280;42589;45.536;9.032;2022-09-09T03:33:43;99206.25;;;30.15;48.28
56713;BME280;42589;45.536;9.032;2022-09-09T03:36:44;99209.94;;;29.86;48.55
56713;BME280;42589;45.536;9.032;2022-09-09T03:39:45;99205.94;;;29.78;50.02
56713;BME280;42589;45.536;9.032;2022-09-09T03:42:49;99189.25;;;29.27;51.03
56713;BME280;42589;45.536;9.032;2022-09-09T03:45:50;99172.53;;;29.28;50.95
56713;BME280;42589;45.536;9.032;2022-09-09T03:48:51;99190.06;;;29.51;50.20
56713;BME280;42589;45.536;9.032;2022-09-09T03:51:56;99192.06;;;29.70;49.15
56713;BME280;42589;45.536;9.032;2022-09-09T03:54:57;99185.78;;;29.69;49.37
56713;BME280;42589;45.536;9.032;2022-09-09T03:57:58;99193.72;;;29.90;49.35
56713;BME280;42589;45.536;9.032;2022-09-09T04:01:03;99191.97;;;29.75;49.79
56713;BME280;42589;45.536;9.032;2022-09-09T04:04:05;99185.88;;;30.02;49.12
56713;BME280;42589;45.536;9.032;2022-09-09T04:07:06;99192.50;;;29.77;49.78
56713;BME280;42589;45.536;9.032;2022-09-09T04:10:07;99191.06;;;28.78;52.84
56713;BME280;42589;45.536;9.032;2022-09-09T04:13:08;99185.53;;;28.10;54.18
56713;BME280;42589;45.536;9.032;2022-09-09T04:16:10;99193.69;;;28.20;53.68
56713;BME280;42589;45.536;9.032;2022-09-09T04:19:11;99189.59;;;28.91;52.38
56713;BME280;42589;45.536;9.032;2022-09-09T04:22:13;99198.88;;;29.24;51.28
56713;BME280;42589;45.536;9.032;2022-09-09T04:25:14;99196.31;;;29.57;50.54
56713;BME280;42589;45.536;9.032;2022-09-09T04:28:16;99196.44;;;28.88;52.96
56713;BME280;42589;45.536;9.032;2022-09-09T04:31:20;99194.16;;;29.01;52.63
56713;BME280;42589;45.536;9.032;2022-09-09T04:34:22;99198.28;;;28.19;53.94
56713;BME280;42589;45.536;9.032;2022-09-09T04:37:23;99202.03;;;28.34;53.76
56713;BME280;42589;45.536;9.032;2022-09-09T04:40:25;99202.09;;;28.68;52.18
56713;BME280;42589;45.536;9.032;2022-09-09T04:43:26;99217.25;;;29.19;52.45
56713;BME280;42589;45.536;9.032;2022-09-09T04:46:27;99232.47;;;29.54;51.36
56713;BME280;42589;45.536;9.032;2022-09-09T04:49:27;99230.59;;;29.25;50.81
56713;BME280;42589;45.536;9.032;2022-09-09T04:52:28;99229.56;;;29.45;50.89
56713;BME280;42589;45.536;9.032;2022-09-09T04:55:29;99238.19;;;29.57;51.09
56713;BME280;42589;45.536;9.032;2022-09-09T04:58:30;99242.41;;;29.21;51.99
56713;BME280;42589;45.536;9.032;2022-09-09T05:01:31;99242.47;;;28.81;52.61
56713;BME280;42589;45.536;9.032;2022-09-09T05:04:32;99235.25;;;29.25;51.78
56713;BME280;42589;45.536;9.032;2022-09-09T05:07:33;99235.63;;;29.42;51.29
56713;BME280;42589;45.536;9.032;2022-09-09T05:10:36;99233.72;;;29.13;51.79
56713;BME280;42589;45.536;9.032;2022-09-09T05:13:37;99225.47;;;29.43;51.70
56713;BME280;42589;45.536;9.032;2022-09-09T05:16:38;99244.28;;;29.49;51.50
56713;BME280;42589;45.536;9.032;2022-09-09T05:19:40;99250.25;;;29.03;51.29
56713;BME280;42589;45.536;9.032;2022-09-09T05:22:40;99249.69;;;29.30;50.77
56713;BME280;42589;45.536;9.032;2022-09-09T05:25:42;99259.81;;;27.31;51.89
56713;BME280;42589;45.536;9.032;2022-09-09T05:28:42;99262.00;;;27.14;50.70
56713;BME280;42589;45.536;9.032;2022-09-09T05:31:43;99262.38;;;27.93;48.88
56713;BME280;42589;45.536;9.032;2022-09-09T05:34:44;99269.53;;;27.79;49.58
56713;BME280;42589;45.536;9.032;2022-09-09T05:37:46;99263.97;;;28.04;49.21
56713;BME280;42589;45.536;9.032;2022-09-09T05:40:48;99264.97;;;27.33;50.25
56713;BME280;42589;45.536;9.032;2022-09-09T05:43:50;99258.34;;;27.65;49.37
56713;BME280;42589;45.536;9.032;2022-09-09T05:46:50;99269.06;;;28.21;47.84
56713;BME280;42589;45.536;9.032;2022-09-09T05:49:51;99266.34;;;27.36;49.23
56713;BME280;42589;45.536;9.032;2022-09-09T05:52:54;99267.97;;;27.37;49.63
56713;BME280;42589;45.536;9.032;2022-09-09T05:56:07;99255.34;;;27.66;49.70
56713;BME280;42589;45.536;9.032;2022-09-09T05:59:10;99275.53;;;27.81;48.65
56713;BME280;42589;45.536;9.032;2022-09-09T06:02:11;99273.97;;;28.29;47.25
56713;BME280;42589;45.536;9.032;2022-09-09T06:05:13;99262.28;;;28.13;48.95
56713;BME280;42589;45.536;9.032;2022-09-09T06:08:14;99277.31;;;28.11;48.20
56713;BME280;42589;45.536;9.032;2022-09-09T06:11:24;99269.75;;;27.97;48.95
56713;BME280;42589;45.536;9.032;2022-09-09T06:14:24;99285.63;;;27.80;49.34
56713;BME280;42589;45.536;9.032;2022-09-09T06:17:32;99282.13;;;27.49;49.61
56713;BME280;42589;45.536;9.032;2022-09-09T06:20:33;99279.22;;;28.15;48.10
56713;BME280;42589;45.536;9.032;2022-09-09T06:23:35;99279.72;;;28.22;48.30
56713;BME280;42589;45.536;9.032;2022-09-09T06:26:37;99296.47;;;28.06;48.25
56713;BME280;42589;45.536;9.032;2022-09-09T06:29:40;99299.03;;;27.82;47.90
56713;BME280;42589;45.536;9.032;2022-09-09T06:32:42;99304.34;;;28.17;48.16
56713;BME280;42589;45.536;9.032;2022-09-09T06:35:51;99292.69;;;28.51;46.37
56713;BME280;42589;45.536;9.032;2022-09-09T06:38:53;99306.91;;;28.53;46.09
56713;BME280;42589;45.536;9.032;2022-09-09T06:41:56;99300.78;;;28.72;46.18
56713;BME280;42589;45.536;9.032;2022-09-09T06:44:59;99303.66;;;28.90;44.88
56713;BME280;42589;45.536;9.032;2022-09-09T06:47:59;99308.75;;;28.63;46.26
56713;BME280;42589;45.536;9.032;2022-09-09T06:51:08;99309.06;;;28.96;44.90
56713;BME280;42589;45.536;9.032;2022-09-09T06:54:11;99319.44;;;29.04;45.16
56713;BME280;42589;45.536;9.032;2022-09-09T06:57:11;99324.22;;;29.51;44.23
56713;BME280;42589;45.536;9.032;2022-09-09T07:00:13;99318.56;;;29.96;43.41
56713;BME280;42589;45.536;9.032;2022-09-09T07:03:14;99317.06;;;29.84;43.48
56713;BME280;42589;45.536;9.032;2022-09-09T07:06:23;99315.66;;;29.63;44.70
56713;BME280;42589;45.536;9.032;2022-09-09T07:09:25;99307.91;;;29.12;44.17
56713;BME280;42589;45.536;9.032;2022-09-09T07:12:27;99306.53;;;28.70;45.12
56713;BME280;42589;45.536;9.032;2022-09-09T07:15:28;99306.22;;;28.77;43.69
56713;BME280;42589;45.536;9.032;2022-09-09T07:18:29;99320.41;;;28.79;45.35
56713;BME280;42589;45.536;9.032;2022-09-09T07:21:31;99285.91;;;29.51;43.83
56713;BME280;42589;45.536;9.032;2022-09-09T07:24:32;99297.31;;;29.58;43.62
56713;BME280;42589;45.536;9.032;2022-09-09T07:27:33;99303.75;;;29.97;44.09
56713;BME280;42589;45.536;9.032;2022-09-09T07:30:34;99284.66;;;30.35;43.61
56713;BME280;42589;45.536;9.032;2022-09-09T07:33:35;99304.53;;;30.26;43.90
56713;BME280;42589;45.536;9.032;2022-09-09T07:36:38;99308.19;;;30.17;43.85
56713;BME280;42589;45.536;9.032;2022-09-09T07:39:39;99298.53;;;30.00;43.35
56713;BME280;42589;45.536;9.032;2022-09-09T07:42:40;99300.50;;;30.81;42.87
56713;BME280;42589;45.536;9.032;2022-09-09T07:45:41;99308.56;;;29.57;44.38
56713;BME280;42589;45.536;9.032;2022-09-09T07:48:53;99305.28;;;30.08;43.93
56713;BME280;42589;45.536;9.032;2022-09-09T07:51:54;99291.84;;;30.06;44.37
56713;BME280;42589;45.536;9.032;2022-09-09T07:54:56;99300.72;;;30.22;43.76
56713;BME280;42589;45.536;9.032;2022-09-09T07:57:57;99312.50;;;30.85;42.81
56713;BME280;42589;45.536;9.032;2022-09-09T08:00:59;99309.31;;;30.78;42.73
56713;BME280;42589;45.536;9.032;2022-09-09T08:04:03;99321.53;;;29.99;44.55
56713;BME280;42589;45.536;9.032;2022-09-09T08:07:05;99325.22;;;30.57;43.29
56713;BME280;42589;45.536;9.032;2022-09-09T08:10:06;99324.13;;;30.58;43.31
56713;BME280;42589;45.536;9.032;2022-09-09T08:13:08;99344.94;;;30.59;43.13
56713;BME280;42589;45.536;9.032;2022-09-09T08:16:15;99323.00;;;30.96;42.51
56713;BME280;42589;45.536;9.032;2022-09-09T08:19:16;99330.56;;;31.05;42.70
56713;BME280;42589;45.536;9.032;2022-09-09T08:22:17;99315.25;;;29.99;43.33
56713;BME280;42589;45.536;9.032;2022-09-09T08:25:19;99330.97;;;30.12;44.30
56713;BME280;42589;45.536;9.032;2022-09-09T08:28:19;99313.16;;;30.76;43.30
56713;BME280;42589;45.536;9.032;2022-09-09T08:31:23;99328.47;;;30.40;43.95
56713;BME280;42589;45.536;9.032;2022-09-09T08:34:25;99330.41;;;30.58;43.14
56713;BME280;42589;45.536;9.032;2022-09-09T08:37:28;99330.31;;;30.44;43.01
56713;BME280;42589;45.536;9.032;2022-09-09T08:40:32;99331.50;;;30.57;43.45
56713;BME280;42589;45.536;9.032;2022-09-09T08:43:35;99328.25;;;30.36;43.78
56713;BME280;42589;45.536;9.032;2022-09-09T08:46:55;99336.56;;;30.69;43.10
56713;BME280;42589;45.536;9.032;2022-09-09T08:56:23;99346.28;;;31.37;41.37
56713;BME280;42589;45.536;9.032;2022-09-09T08:59:28;99347.75;;;31.76;40.76
56713;BME280;42589;45.536;9.032;2022-09-09T09:06:01;99340.88;;;30.94;43.09
56713;BME280;42589;45.536;9.032;2022-09-09T09:09:16;99346.88;;;32.49;40.49
56713;BME280;42589;45.536;9.032;2022-09-09T09:12:23;99343.19;;;31.85;40.80
56713;BME280;42589;45.536;9.032;2022-09-09T09:15:27;99354.41;;;31.88;40.21
56713;BME280;42589;45.536;9.032;2022-09-09T09:18:30;99361.38;;;31.81;40.31
56713;BME280;42589;45.536;9.032;2022-09-09T09:21:41;99349.63;;;32.08;39.29
56713;BME280;42589;45.536;9.032;2022-09-09T09:24:53;99353.94;;;32.78;37.86
56713;BME280;42589;45.536;9.032;2022-09-09T09:28:00;99340.88;;;32.83;38.32
56713;BME280;42589;45.536;9.032;2022-09-09T09:31:10;99336.16;;;32.48;38.32
56713;BME280;42589;45.536;9.032;2022-09-09T09:34:13;99337.78;;;32.99;37.83
56713;BME280;42589;45.536;9.032;2022-09-09T09:37:24;99347.16;;;33.20;37.40
56713;BME280;42589;45.536;9.032;2022-09-09T09:40:28;99343.50;;;33.02;36.40
56713;BME280;42589;45.536;9.032;2022-09-09T09:43:36;99343.03;;;32.23;37.91
56713;BME280;42589;45.536;9.032;2022-09-09T09:46:38;99348.38;;;32.92;37.76
56713;BME280;42589;45.536;9.032;2022-09-09T09:49:42;99341.38;;;32.22;37.31
56713;BME280;42589;45.536;9.032;2022-09-09T09:52:56;99335.53;;;32.51;37.10
56713;BME280;42589;45.536;9.032;2022-09-09T09:56:01;99342.41;;;33.57;36.22
56713;BME280;42589;45.536;9.032;2022-09-09T09:59:03;99333.06;;;33.44;35.01
56713;BME280;42589;45.536;9.032;2022-09-09T10:02:13;99353.78;;;33.64;34.88
56713;BME280;42589;45.536;9.032;2022-09-09T10:05:23;99332.81;;;33.55;34.77
56713;BME280;42589;45.536;9.032;2022-09-09T10:08:26;99331.22;;;32.72;35.35
56713;BME280;42589;45.536;9.032;2022-09-09T10:11:46;99327.19;;;33.60;33.31
56713;BME280;42589;45.536;9.032;2022-09-09T10:15:30;99318.59;;;32.94;34.35
56713;BME280;42589;45.536;9.032;2022-09-09T10:22:03;99314.97;;;33.29;33.67
56713;BME280;42589;45.536;9.032;2022-09-09T10:25:16;99335.56;;;33.86;32.10
56713;BME280;42589;45.536;9.032;2022-09-09T10:28:46;99323.53;;;32.97;34.13
56713;BME280;42589;45.536;9.032;2022-09-09T10:35:35;99323.78;;;32.95;33.39
56713;BME280;42589;45.536;9.032;2022-09-09T10:38:45;99319.41;;;33.39;32.39
56713;BME280;42589;45.536;9.032;2022-09-09T10:42:05;99322.31;;;33.57;32.69
56713;BME280;42589;45.536;9.032;2022-09-09T10:45:18;99310.94;;;33.89;31.75
56713;BME280;42589;45.536;9.032;2022-09-09T10:51:40;99308.03;;;33.55;32.29
56713;BME280;42589;45.536;9.032;2022-09-09T11:01:34;99302.47;;;33.86;31.10
56713;BME280;42589;45.536;9.032;2022-09-09T11:05:08;99301.53;;;32.83;33.04
56713;BME280;42589;45.536;9.032;2022-09-09T11:08:21;99290.50;;;33.50;32.26
56713;BME280;42589;45.536;9.032;2022-09-09T11:11:34;99288.63;;;33.37;33.27
56713;BME280;42589;45.536;9.032;2022-09-09T11:14:45;99283.94;;;34.17;32.02
56713;BME280;42589;45.536;9.032;2022-09-09T11:17:50;99287.41;;;34.66;31.43
56713;BME280;42589;45.536;9.032;2022-09-09T11:21:00;99290.66;;;34.60;31.35
56713;BME280;42589;45.536;9.032;2022-09-09T11:24:06;99280.91;;;34.88;31.84
56713;BME280;42589;45.536;9.032;2022-09-09T11:27:15;99286.94;;;33.98;31.64
56713;BME280;42589;45.536;9.032;2022-09-09T11:30:22;99284.50;;;34.72;30.83
56713;BME280;42589;45.536;9.032;2022-09-09T11:33:55;99281.59;;;34.68;31.34
56713;BME280;42589;45.536;9.032;2022-09-09T11:40:38;99279.28;;;34.96;30.04
56713;BME280;42589;45.536;9.032;2022-09-09T11:43:53;99278.81;;;34.68;30.95
56713;BME280;42589;45.536;9.032;2022-09-09T11:46:54;99280.75;;;34.94;30.40
56713;BME280;42589;45.536;9.032;2022-09-09T11:50:22;99283.84;;;34.66;30.73
56713;BME280;42589;45.536;9.032;2022-09-09T11:53:27;99274.22;;;35.24;29.22
56713;BME280;42589;45.536;9.032;2022-09-09T11:56:30;99263.06;;;34.86;30.12
56713;BME280;42589;45.536;9.032;2022-09-09T11:59:32;99269.97;;;34.05;30.09
56713;BME280;42589;45.536;9.032;2022-09-09T12:02:33;99257.00;;;33.03;31.60
56713;BME280;42589;45.536;9.032;2022-09-09T12:05:42;99262.56;;;34.40;31.29
56713;BME280;42589;45.536;9.032;2022-09-09T12:08:50;99270.84;;;34.66;30.96
56713;BME280;42589;45.536;9.032;2022-09-09T12:11:52;99257.69;;;34.37;30.23
56713;BME280;42589;45.536;9.032;2022-09-09T12:18:07;99261.53;;;35.23;29.73
56713;BME280;42589;45.536;9.032;2022-09-09T12:24:39;99252.84;;;35.51;29.16
56713;BME280;42589;45.536;9.032;2022-09-09T12:28:09;99246.00;;;33.35;31.55
56713;BME280;42589;45.536;9.032;2022-09-09T12:37:49;99233.00;;;34.93;30.19
56713;BME280;42589;45.536;9.032;2022-09-09T12:40:56;99230.41;;;34.97;30.01
56713;BME280;42589;45.536;9.032;2022-09-09T12:44:08;99230.25;;;34.41;30.43
56713;BME280;42589;45.536;9.032;2022-09-09T12:47:10;99238.00;;;35.17;29.75
56713;BME280;42589;45.536;9.032;2022-09-09T12:53:26;99224.88;;;35.05;29.97
56713;BME280;42589;45.536;9.032;2022-09-09T12:56:30;99217.09;;;34.73;30.59
56713;BME280;42589;45.536;9.032;2022-09-09T12:59:39;99213.41;;;34.60;30.11
56713;BME280;42589;45.536;9.032;2022-09-09T13:05:50;99202.94;;;33.08;31.69
56713;BME280;42589;45.536;9.032;2022-09-09T13:08:52;99196.78;;;33.42;31.57
56713;BME280;42589;45.536;9.032;2022-09-09T13:11:55;99197.63;;;34.86;30.41
56713;BME280;42589;45.536;9.032;2022-09-09T13:14:57;99192.69;;;35.18;29.50
56713;BME280;42589;45.536;9.032;2022-09-09T13:18:01;99192.34;;;35.20;29.51
56713;BME280;42589;45.536;9.032;2022-09-09T13:21:04;99185.94;;;34.72;29.61
56713;BME280;42589;45.536;9.032;2022-09-09T13:27:30;99175.69;;;34.81;28.81
56713;BME280;42589;45.536;9.032;2022-09-09T13:30:33;99172.94;;;34.81;28.84
56713;BME280;42589;45.536;9.032;2022-09-09T13:33:37;99182.53;;;34.66;28.70
56713;BME280;42589;45.536;9.032;2022-09-09T13:36:38;99183.03;;;34.77;28.95
56713;BME280;42589;45.536;9.032;2022-09-09T13:39:51;99168.75;;;34.14;29.38
56713;BME280;42589;45.536;9.032;2022-09-09T13:42:56;99169.44;;;34.55;29.20
56713;BME280;42589;45.536;9.032;2022-09-09T13:46:01;99168.38;;;34.85;28.05
56713;BME280;42589;45.536;9.032;2022-09-09T13:52:14;99162.09;;;34.59;29.05
56713;BME280;42589;45.536;9.032;2022-09-09T13:55:15;99156.66;;;33.49;29.87
56713;BME280;42589;45.536;9.032;2022-09-09T13:58:18;99160.47;;;34.49;30.27
56713;BME280;42589;45.536;9.032;2022-09-09T14:01:19;99144.31;;;35.03;29.25
56713;BME280;42589;45.536;9.032;2022-09-09T14:04:20;99153.69;;;35.11;26.78
56713;BME280;42589;45.536;9.032;2022-09-09T14:07:21;99133.50;;;34.81;27.17
56713;BME280;42589;45.536;9.032;2022-09-09T14:10:23;99142.69;;;35.02;26.73
56713;BME280;42589;45.536;9.032;2022-09-09T14:13:23;99148.19;;;35.02;26.76
56713;BME280;42589;45.536;9.032;2022-09-09T14:16:24;99138.28;;;35.01;27.13
56713;BME280;42589;45.536;9.032;2022-09-09T14:19:27;99124.19;;;34.94;27.67
56713;BME280;42589;45.536;9.032;2022-09-09T14:22:28;99133.47;;;34.89;28.18
56713;BME280;42589;45.536;9.032;2022-09-09T14:25:30;99130.88;;;34.84;27.78
56713;BME280;42589;45.536;9.032;2022-09-09T14:28:32;99135.19;;;34.38;28.01
56713;BME280;42589;45.536;9.032;2022-09-09T14:31:33;99128.97;;;34.68;28.26
56713;BME280;42589;45.536;9.032;2022-09-09T14:34:34;99140.69;;;34.64;28.06
56713;BME280;42589;45.536;9.032;2022-09-09T14:37:36;99120.84;;;33.49;29.27
56713;BME280;42589;45.536;9.032;2022-09-09T14:40:37;99128.16;;;34.50;28.50
56713;BME280;42589;45.536;9.032;2022-09-09T14:43:39;99126.88;;;34.64;28.67
56713;BME280;42589;45.536;9.032;2022-09-09T14:46:46;99121.63;;;34.89;28.23
56713;BME280;42589;45.536;9.032;2022-09-09T14:49:47;99118.81;;;34.98;27.83
56713;BME280;42589;45.536;9.032;2022-09-09T14:52:49;99131.81;;;34.97;28.56
56713;BME280;42589;45.536;9.032;2022-09-09T14:55:50;99134.31;;;34.73;28.54
56713;BME280;42589;45.536;9.032;2022-09-09T14:58:55;99135.97;;;34.65;28.20
56713;BME280;42589;45.536;9.032;2022-09-09T15:01:57;99136.19;;;35.07;28.21
56713;BME280;42589;45.536;9.032;2022-09-09T15:04:58;99130.03;;;35.40;27.29
56713;BME280;42589;45.536;9.032;2022-09-09T15:07:59;99128.13;;;35.82;26.95
56713;BME280;42589;45.536;9.032;2022-09-09T15:11:01;99122.88;;;35.68;26.60
56713;BME280;42589;45.536;9.032;2022-09-09T15:14:03;99109.25;;;35.63;26.93
56713;BME280;42589;45.536;9.032;2022-09-09T15:17:03;99133.53;;;35.19;28.18
56713;BME280;42589;45.536;9.032;2022-09-09T15:20:05;99112.34;;;35.62;27.00
56713;BME280;42589;45.536;9.032;2022-09-09T15:23:08;99121.38;;;35.11;26.58
56713;BME280;42589;45.536;9.032;2022-09-09T15:26:09;99111.28;;;35.16;27.56
56713;BME280;42589;45.536;9.032;2022-09-09T15:29:10;99121.88;;;35.73;26.71
56713;BME280;42589;45.536;9.032;2022-09-09T15:32:11;99105.72;;;35.54;25.76
56713;BME280;42589;45.536;9.032;2022-09-09T15:35:12;99105.47;;;35.68;26.37
56713;BME280;42589;45.536;9.032;2022-09-09T15:38:12;99111.00;;;35.89;25.97
56713;BME280;42589;45.536;9.032;2022-09-09T15:41:13;99110.38;;;36.25;24.90
56713;BME280;42589;45.536;9.032;2022-09-09T15:44:15;99099.81;;;36.06;26.18
56713;BME280;42589;45.536;9.032;2022-09-09T15:47:16;99099.06;;;36.18;26.16
56713;BME280;42589;45.536;9.032;2022-09-09T15:50:16;99086.34;;;36.71;24.90
56713;BME280;42589;45.536;9.032;2022-09-09T15:53:19;99104.03;;;38.61;23.11
56713;BME280;42589;45.536;9.032;2022-09-09T15:56:20;99090.09;;;38.89;21.56
56713;BME280;42589;45.536;9.032;2022-09-09T15:59:22;99103.34;;;39.12;22.47
56713;BME280;42589;45.536;9.032;2022-09-09T16:02:23;99098.72;;;39.86;21.86
56713;BME280;42589;45.536;9.032;2022-09-09T16:05:24;99090.13;;;38.45;22.91
56713;BME280;42589;45.536;9.032;2022-09-09T16:08:32;99092.00;;;39.87;21.04
56713;BME280;42589;45.536;9.032;2022-09-09T16:11:37;99100.03;;;39.73;21.04
56713;BME280;42589;45.536;9.032;2022-09-09T16:14:38;99097.59;;;40.92;20.57
56713;BME280;42589;45.536;9.032;2022-09-09T16:17:40;99104.91;;;40.77;20.13
56713;BME280;42589;45.536;9.032;2022-09-09T16:20:41;99094.41;;;41.16;19.72
56713;BME280;42589;45.536;9.032;2022-09-09T16:23:42;99107.44;;;43.00;18.02
56713;BME280;42589;45.536;9.032;2022-09-09T16:26:46;99115.81;;;43.00;17.81
56713;BME280;42589;45.536;9.032;2022-09-09T16:29:48;99103.94;;;41.42;20.29
56713;BME280;42589;45.536;9.032;2022-09-09T16:32:49;99102.38;;;40.49;20.82
56713;BME280;42589;45.536;9.032;2022-09-09T16:35:50;99104.06;;;41.22;19.37
56713;BME280;42589;45.536;9.032;2022-09-09T16:38:54;99101.13;;;39.33;21.82
56713;BME280;42589;45.536;9.032;2022-09-09T16:41:56;99111.53;;;38.17;22.41
56713;BME280;42589;45.536;9.032;2022-09-09T16:44:57;99111.09;;;37.13;22.41
56713;BME280;42589;45.536;9.032;2022-09-09T16:48:01;99107.03;;;37.23;22.83
56713;BME280;42589;45.536;9.032;2022-09-09T16:51:06;99099.59;;;36.78;22.92
56713;BME280;42589;45.536;9.032;2022-09-09T16:54:08;99090.97;;;35.92;24.00
56713;BME280;42589;45.536;9.032;2022-09-09T16:57:09;99095.09;;;35.35;25.82
56713;BME280;42589;45.536;9.032;2022-09-09T17:00:10;99090.91;;;35.29;25.74
56713;BME280;42589;45.536;9.032;2022-09-09T17:03:13;99096.00;;;34.71;26.20
56713;BME280;42589;45.536;9.032;2022-09-09T17:06:14;99112.44;;;35.15;25.82
56713;BME280;42589;45.536;9.032;2022-09-09T17:09:16;99107.63;;;35.03;26.28
56713;BME280;42589;45.536;9.032;2022-09-09T17:12:17;99103.13;;;34.81;27.84
56713;BME280;42589;45.536;9.032;2022-09-09T17:15:18;99097.09;;;34.79;26.58
56713;BME280;42589;45.536;9.032;2022-09-09T17:18:19;99112.28;;;34.64;26.92
56713;BME280;42589;45.536;9.032;2022-09-09T17:21:22;99100.91;;;34.65;26.67
56713;BME280;42589;45.536;9.032;2022-09-09T17:24:27;99108.19;;;34.70;26.58
56713;BME280;42589;45.536;9.032;2022-09-09T17:27:29;99098.63;;;34.59;26.29
56713;BME280;42589;45.536;9.032;2022-09-09T17:30:35;99097.63;;;34.63;26.86
56713;BME280;42589;45.536;9.032;2022-09-09T17:33:38;99101.88;;;34.43;27.14
56713;BME280;42589;45.536;9.032;2022-09-09T17:36:39;99105.47;;;34.44;27.23